sensor_id;sensor_type;location;lat;lon;timestamp;pressure;altitude;pressure_sealevel;temperature;humidity
20013;BME280;10167;42.852;23.042;2024-01-15T00:00:08;94309.06;;;-2.17;100.00
20013;BME280;10167;42.852;23.042;2024-01-15T00:02:38;94309.97;;;-2.33;100.00
20013;BME280;10167;42.852;23.042;2024-01-15T00:05:07;94312.22;;;-2.30;100.00
20013;BME280;10167;42.852;23.042;2024-01-15T00:07:36;94316.94;;;-2.33;100.00
20013;BME280;10167;42.852;23.042;2024-01-15T00:10:06;94315.16;;;-2.33;100.00
20013;BME280;10167;42.852;23.042;2024-01-15T00:12:36;94320.50;;;-2.34;100.00
20013;BME280;10167;42.852;23.042;2024-01-15T00:15:06;94320.56;;;-2.42;100.00
20013;BME280;10167;42.852;23.042;2024-01-15T00:17:35;94316.53;;;-2.45;100.00
20013;BME280;10167;42.852;23.042;2024-01-15T00:20:06;94318.59;;;-2.63;100.00
20013;BME280;10167;42.852;23.042;2024-01-15T00:22:35;94322.84;;;-2.47;100.00
20013;BME280;10167;42.852;23.042;2024-01-15T00:25:05;94322.41;;;-2.51;100.00
20013;BME280;10167;42.852;23.042;2024-01-15T00:27:37;94319.84;;;-2.59;100.00
20013;BME280;10167;42.852;23.042;2024-01-15T00:30:07;94328.97;;;-2.63;100.00
20013;BME280;10167;42.852;23.042;2024-01-15T00:32:37;94317.72;;;-2.56;100.00
20013;BME280;10167;42.852;23.042;2024-01-15T00:35:06;94312.25;;;-2.61;100.00
20013;BME280;10167;42.852;23.042;2024-01-15T00:37:36;94322.00;;;-2.63;100.00
20013;BME280;10167;42.852;23.042;2024-01-15T00:40:06;94318.38;;;-2.53;100.00
20013;BME280;10167;42.852;23.042;2024-01-15T00:42:37;94316.59;;;-2.53;100.00
20013;BME280;10167;42.852;23.042;2024-01-15T00:45:07;94313.50;;;-2.48;100.00
20013;BME280;10167;42.852;23.042;2024-01-15T00:47:36;94327.06;;;-2.46;100.00
20013;BME280;10167;42.852;23.042;2024-01-15T00:50:06;94315.56;;;-2.44;100.00
20013;BME280;10167;42.852;23.042;2024-01-15T00:52:36;94315.38;;;-2.42;100.00
20013;BME280;10167;42.852;23.042;2024-01-15T00:55:07;94303.34;;;-2.35;100.00
20013;BME280;10167;42.852;23.042;2024-01-15T00:57:37;94303.50;;;-2.37;100.00
20013;BME280;10167;42.852;23.042;2024-01-15T01:00:07;94303.66;;;-2.30;100.00
20013;BME280;10167;42.852;23.042;2024-01-15T01:02:37;94307.16;;;-2.23;100.00
20013;BME280;10167;42.852;23.042;2024-01-15T01:05:09;94301.16;;;-2.24;100.00
20013;BME280;10167;42.852;23.042;2024-01-15T01:07:38;94310.22;;;-2.20;100.00
20013;BME280;10167;42.852;23.042;2024-01-15T01:10:08;94294.72;;;-2.28;100.00
20013;BME280;10167;42.852;23.042;2024-01-15T01:12:38;94302.13;;;-2.25;100.00
20013;BME280;10167;42.852;23.042;2024-01-15T01:15:08;94296.28;;;-2.18;100.00
20013;BME280;10167;42.852;23.042;2024-01-15T01:17:37;94293.22;;;-2.22;100.00
20013;BME280;10167;42.852;23.042;2024-01-15T01:20:07;94289.47;;;-2.20;100.00
20013;BME280;10167;42.852;23.042;2024-01-15T01:22:39;94280.28;;;-2.07;100.00
20013;BME280;10167;42.852;23.042;2024-01-15T01:25:09;94287.59;;;-2.11;100.00
20013;BME280;10167;42.852;23.042;2024-01-15T01:27:39;94289.97;;;-2.24;100.00
20013;BME280;10167;42.852;23.042;2024-01-15T01:30:09;94283.13;;;-2.17;100.00
20013;BME280;10167;42.852;23.042;2024-01-15T01:32:39;94284.91;;;-2.17;100.00
20013;BME280;10167;42.852;23.042;2024-01-15T01:35:08;94272.00;;;-2.26;100.00
20013;BME280;10167;42.852;23.042;2024-01-15T01:37:37;94274.78;;;-2.27;100.00
20013;BME280;10167;42.852;23.042;2024-01-15T01:40:08;94276.59;;;-2.36;100.00
20013;BME280;10167;42.852;23.042;2024-01-15T01:42:38;94273.91;;;-2.42;100.00
20013;BME280;10167;42.852;23.042;2024-01-15T01:45:08;94262.91;;;-2.44;100.00
20013;BME280;10167;42.852;23.042;2024-01-15T01:47:38;94259.50;;;-2.68;100.00
20013;BME280;10167;42.852;23.042;2024-01-15T01:50:08;94271.72;;;-2.53;100.00
20013;BME280;10167;42.852;23.042;2024-01-15T01:52:37;94256.06;;;-2.60;100.00
20013;BME280;10167;42.852;23.042;2024-01-15T01:55:07;94259.72;;;-2.54;100.00
20013;BME280;10167;42.852;23.042;2024-01-15T01:57:40;94254.22;;;-2.51;100.00
20013;BME280;10167;42.852;23.042;2024-01-15T02:00:12;94251.91;;;-2.46;100.00
20013;BME280;10167;42.852;23.042;2024-01-15T02:02:41;94245.09;;;-2.47;100.00
20013;BME280;10167;42.852;23.042;2024-01-15T02:05:12;94240.44;;;-2.52;100.00
20013;BME280;10167;42.852;23.042;2024-01-15T02:07:43;94241.09;;;-2.50;100.00
20013;BME280;10167;42.852;23.042;2024-01-15T02:10:13;94230.66;;;-2.65;100.00
20013;BME280;10167;42.852;23.042;2024-01-15T02:12:44;94218.16;;;-2.61;100.00
20013;BME280;10167;42.852;23.042;2024-01-15T02:15:17;94217.69;;;-2.65;100.00
20013;BME280;10167;42.852;23.042;2024-01-15T02:18:04;94210.78;;;-2.72;100.00
20013;BME280;10167;42.852;23.042;2024-01-15T02:20:36;94221.34;;;-2.82;100.00
20013;BME280;10167;42.852;23.042;2024-01-15T02:23:14;94215.00;;;-3.02;100.00
20013;BME280;10167;42.852;23.042;2024-01-15T02:25:44;94209.44;;;-2.91;100.00
20013;BME280;10167;42.852;23.042;2024-01-15T02:28:14;94202.88;;;-3.02;100.00
20013;BME280;10167;42.852;23.042;2024-01-15T02:30:44;94207.38;;;-2.96;100.00
20013;BME280;10167;42.852;23.042;2024-01-15T02:33:14;94217.91;;;-2.97;100.00
20013;BME280;10167;42.852;23.042;2024-01-15T02:35:43;94217.97;;;-3.05;100.00
20013;BME280;10167;42.852;23.042;2024-01-15T02:38:15;94204.38;;;-3.07;100.00
20013;BME280;10167;42.852;23.042;2024-01-15T02:40:45;94202.09;;;-3.10;100.00
20013;BME280;10167;42.852;23.042;2024-01-15T02:43:14;94210.53;;;-3.08;100.00
20013;BME280;10167;42.852;23.042;2024-01-15T02:45:43;94211.19;;;-3.14;100.00
20013;BME280;10167;42.852;23.042;2024-01-15T02:48:12;94201.81;;;-3.15;100.00
20013;BME280;10167;42.852;23.042;2024-01-15T02:50:42;94204.75;;;-3.18;100.00
20013;BME280;10167;42.852;23.042;2024-01-15T02:53:11;94196.00;;;-3.17;100.00
20013;BME280;10167;42.852;23.042;2024-01-15T02:55:41;94185.69;;;-3.25;100.00
20013;BME280;10167;42.852;23.042;2024-01-15T02:58:11;94179.53;;;-3.24;100.00
20013;BME280;10167;42.852;23.042;2024-01-15T03:00:40;94181.94;;;-3.23;100.00
20013;BME280;10167;42.852;23.042;2024-01-15T03:03:10;94177.78;;;-3.32;100.00
20013;BME280;10167;42.852;23.042;2024-01-15T03:05:39;94169.81;;;-3.22;100.00
20013;BME280;10167;42.852;23.042;2024-01-15T03:08:08;94173.38;;;-3.23;100.00
20013;BME280;10167;42.852;23.042;2024-01-15T03:10:37;94173.03;;;-3.20;100.00
20013;BME280;10167;42.852;23.042;2024-01-15T03:13:08;94164.41;;;-3.13;100.00
20013;BME280;10167;42.852;23.042;2024-01-15T03:15:37;94166.19;;;-3.13;100.00
20013;BME280;10167;42.852;23.042;2024-01-15T03:18:06;94164.25;;;-3.11;100.00
20013;BME280;10167;42.852;23.042;2024-01-15T03:20:36;94162.84;;;-3.22;100.00
20013;BME280;10167;42.852;23.042;2024-01-15T03:23:05;94166.81;;;-3.34;100.00
20013;BME280;10167;42.852;23.042;2024-01-15T03:25:34;94169.34;;;-3.57;100.00
20013;BME280;10167;42.852;23.042;2024-01-15T03:28:03;94176.06;;;-3.40;100.00
20013;BME280;10167;42.852;23.042;2024-01-15T03:30:34;94172.19;;;-3.44;100.00
20013;BME280;10167;42.852;23.042;2024-01-15T03:33:04;94173.97;;;-3.44;100.00
20013;BME280;10167;42.852;23.042;2024-01-15T03:35:33;94169.59;;;-3.44;100.00
20013;BME280;10167;42.852;23.042;2024-01-15T03:38:02;94179.84;;;-3.50;100.00
20013;BME280;10167;42.852;23.042;2024-01-15T03:40:32;94170.91;;;-3.48;100.00
20013;BME280;10167;42.852;23.042;2024-01-15T03:43:01;94161.19;;;-3.46;100.00
20013;BME280;10167;42.852;23.042;2024-01-15T03:45:30;94154.88;;;-3.43;100.00
20013;BME280;10167;42.852;23.042;2024-01-15T03:48:01;94158.91;;;-3.41;100.00
20013;BME280;10167;42.852;23.042;2024-01-15T03:50:30;94160.88;;;-3.43;100.00
20013;BME280;10167;42.852;23.042;2024-01-15T03:52:59;94158.13;;;-3.41;100.00
20013;BME280;10167;42.852;23.042;2024-01-15T03:55:28;94160.69;;;-3.41;100.00
20013;BME280;10167;42.852;23.042;2024-01-15T03:57:57;94160.53;;;-3.40;100.00
20013;BME280;10167;42.852;23.042;2024-01-15T04:00:26;94161.16;;;-3.38;100.00
20013;BME280;10167;42.852;23.042;2024-01-15T04:02:55;94154.66;;;-3.34;100.00
20013;BME280;10167;42.852;23.042;2024-01-15T04:05:26;94155.13;;;-3.30;100.00
20013;BME280;10167;42.852;23.042;2024-01-15T04:07:55;94157.09;;;-3.32;100.00
20013;BME280;10167;42.852;23.042;2024-01-15T04:10:24;94155.94;;;-3.30;100.00
20013;BME280;10167;42.852;23.042;2024-01-15T04:12:53;94150.41;;;-3.26;100.00
20013;BME280;10167;42.852;23.042;2024-01-15T04:15:23;94155.59;;;-3.26;100.00
20013;BME280;10167;42.852;23.042;2024-01-15T04:18:07;94157.19;;;-3.25;100.00
20013;BME280;10167;42.852;23.042;2024-01-15T04:20:38;94148.59;;;-3.18;100.00
20013;BME280;10167;42.852;23.042;2024-01-15T04:23:07;94147.97;;;-3.20;100.00
20013;BME280;10167;42.852;23.042;2024-01-15T04:25:36;94146.00;;;-3.18;100.00
20013;BME280;10167;42.852;23.042;2024-01-15T04:28:05;94149.50;;;-3.11;100.00
20013;BME280;10167;42.852;23.042;2024-01-15T04:30:34;94151.13;;;-3.10;100.00
20013;BME280;10167;42.852;23.042;2024-01-15T04:33:04;94153.09;;;-3.12;100.00
20013;BME280;10167;42.852;23.042;2024-01-15T04:35:34;94148.72;;;-3.11;100.00
20013;BME280;10167;42.852;23.042;2024-01-15T04:38:05;94140.47;;;-3.15;100.00
20013;BME280;10167;42.852;23.042;2024-01-15T04:40:34;94134.47;;;-3.15;100.00
20013;BME280;10167;42.852;23.042;2024-01-15T04:43:03;94124.94;;;-3.15;100.00
20013;BME280;10167;42.852;23.042;2024-01-15T04:45:33;94133.47;;;-3.06;100.00
20013;BME280;10167;42.852;23.042;2024-01-15T04:48:02;94123.56;;;-3.03;100.00
20013;BME280;10167;42.852;23.042;2024-01-15T04:50:31;94130.47;;;-2.95;100.00
20013;BME280;10167;42.852;23.042;2024-01-15T04:53:00;94133.34;;;-2.90;100.00
20013;BME280;10167;42.852;23.042;2024-01-15T04:55:31;94137.03;;;-2.84;100.00
20013;BME280;10167;42.852;23.042;2024-01-15T04:58:00;94132.69;;;-2.92;100.00
20013;BME280;10167;42.852;23.042;2024-01-15T05:00:29;94138.44;;;-2.82;100.00
20013;BME280;10167;42.852;23.042;2024-01-15T05:02:59;94126.78;;;-2.78;100.00
20013;BME280;10167;42.852;23.042;2024-01-15T05:05:28;94141.09;;;-2.67;100.00
20013;BME280;10167;42.852;23.042;2024-01-15T05:07:57;94138.59;;;-2.75;100.00
20013;BME280;10167;42.852;23.042;2024-01-15T05:10:26;94136.56;;;-2.65;100.00
20013;BME280;10167;42.852;23.042;2024-01-15T05:12:57;94128.69;;;-2.57;100.00
20013;BME280;10167;42.852;23.042;2024-01-15T05:15:26;94122.84;;;-2.51;100.00
20013;BME280;10167;42.852;23.042;2024-01-15T05:17:55;94126.03;;;-2.64;100.00
20013;BME280;10167;42.852;23.042;2024-01-15T05:20:24;94118.16;;;-2.56;100.00
20013;BME280;10167;42.852;23.042;2024-01-15T05:22:54;94126.22;;;-2.50;100.00
20013;BME280;10167;42.852;23.042;2024-01-15T05:25:23;94131.50;;;-2.44;100.00
20013;BME280;10167;42.852;23.042;2024-01-15T05:27:52;94118.19;;;-2.41;100.00
20013;BME280;10167;42.852;23.042;2024-01-15T05:30:22;94115.06;;;-2.36;100.00
20013;BME280;10167;42.852;23.042;2024-01-15T05:32:52;94109.97;;;-2.44;100.00
20013;BME280;10167;42.852;23.042;2024-01-15T05:35:21;94103.28;;;-2.39;100.00
20013;BME280;10167;42.852;23.042;2024-01-15T05:37:50;94095.84;;;-2.42;100.00
20013;BME280;10167;42.852;23.042;2024-01-15T05:40:19;94103.00;;;-2.44;100.00
20013;BME280;10167;42.852;23.042;2024-01-15T05:42:49;94100.50;;;-2.37;100.00
20013;BME280;10167;42.852;23.042;2024-01-15T05:45:18;94096.31;;;-2.38;100.00
20013;BME280;10167;42.852;23.042;2024-01-15T05:47:49;94100.06;;;-2.41;100.00
20013;BME280;10167;42.852;23.042;2024-01-15T05:50:18;94099.72;;;-2.38;100.00
20013;BME280;10167;42.852;23.042;2024-01-15T05:52:47;94109.16;;;-2.45;100.00
20013;BME280;10167;42.852;23.042;2024-01-15T05:55:16;94108.44;;;-2.53;100.00
20013;BME280;10167;42.852;23.042;2024-01-15T05:57:46;94104.22;;;-2.54;100.00
20013;BME280;10167;42.852;23.042;2024-01-15T06:00:16;94101.38;;;-2.60;100.00
20013;BME280;10167;42.852;23.042;2024-01-15T06:02:45;94092.34;;;-2.64;100.00
20013;BME280;10167;42.852;23.042;2024-01-15T06:05:16;94092.69;;;-2.67;100.00
20013;BME280;10167;42.852;23.042;2024-01-15T06:07:45;94094.94;;;-2.64;100.00
20013;BME280;10167;42.852;23.042;2024-01-15T06:10:14;94102.78;;;-2.57;100.00
20013;BME280;10167;42.852;23.042;2024-01-15T06:12:44;94099.19;;;-2.71;100.00
20013;BME280;10167;42.852;23.042;2024-01-15T06:15:14;94101.16;;;-2.58;100.00
20013;BME280;10167;42.852;23.042;2024-01-15T06:17:43;94100.94;;;-2.48;100.00
20013;BME280;10167;42.852;23.042;2024-01-15T06:20:17;94098.53;;;-2.50;100.00
20013;BME280;10167;42.852;23.042;2024-01-15T06:22:46;94096.91;;;-2.36;100.00
20013;BME280;10167;42.852;23.042;2024-01-15T06:25:15;94093.72;;;-2.24;100.00
20013;BME280;10167;42.852;23.042;2024-01-15T06:27:44;94101.59;;;-2.17;100.00
20013;BME280;10167;42.852;23.042;2024-01-15T06:30:14;94098.19;;;-2.17;100.00
20013;BME280;10167;42.852;23.042;2024-01-15T06:32:44;94088.88;;;-2.12;100.00
20013;BME280;10167;42.852;23.042;2024-01-15T06:35:13;94095.22;;;-2.00;100.00
20013;BME280;10167;42.852;23.042;2024-01-15T06:37:45;94089.34;;;-1.94;100.00
20013;BME280;10167;42.852;23.042;2024-01-15T06:40:14;94076.63;;;-1.89;100.00
20013;BME280;10167;42.852;23.042;2024-01-15T06:42:43;94084.84;;;-1.85;100.00
20013;BME280;10167;42.852;23.042;2024-01-15T06:45:13;94081.78;;;-1.74;100.00
20013;BME280;10167;42.852;23.042;2024-01-15T06:47:42;94100.66;;;-1.65;100.00
20013;BME280;10167;42.852;23.042;2024-01-15T06:50:11;94091.72;;;-1.63;100.00
20013;BME280;10167;42.852;23.042;2024-01-15T06:52:40;94086.16;;;-1.60;100.00
20013;BME280;10167;42.852;23.042;2024-01-15T06:55:11;94084.44;;;-1.53;100.00
20013;BME280;10167;42.852;23.042;2024-01-15T06:57:40;94085.06;;;-1.51;100.00
20013;BME280;10167;42.852;23.042;2024-01-15T07:00:11;94093.31;;;-1.47;100.00
20013;BME280;10167;42.852;23.042;2024-01-15T07:02:40;94094.66;;;-1.51;100.00
20013;BME280;10167;42.852;23.042;2024-01-15T07:05:10;94101.28;;;-1.49;100.00
20013;BME280;10167;42.852;23.042;2024-01-15T07:07:39;94092.59;;;-1.56;100.00
20013;BME280;10167;42.852;23.042;2024-01-15T07:10:08;94094.81;;;-1.53;100.00
20013;BME280;10167;42.852;23.042;2024-01-15T07:12:41;94102.25;;;-1.50;100.00
20013;BME280;10167;42.852;23.042;2024-01-15T07:15:11;94107.28;;;-1.48;100.00
20013;BME280;10167;42.852;23.042;2024-01-15T07:17:40;94108.06;;;-1.48;100.00
20013;BME280;10167;42.852;23.042;2024-01-15T07:20:11;94104.38;;;-1.38;100.00
20013;BME280;10167;42.852;23.042;2024-01-15T07:22:40;94093.81;;;-1.37;100.00
20013;BME280;10167;42.852;23.042;2024-01-15T07:25:09;94098.78;;;-1.35;100.00
20013;BME280;10167;42.852;23.042;2024-01-15T07:27:40;94079.72;;;-1.28;100.00
20013;BME280;10167;42.852;23.042;2024-01-15T07:30:12;94086.19;;;-1.38;100.00
20013;BME280;10167;42.852;23.042;2024-01-15T07:32:42;94087.88;;;-1.31;100.00
20013;BME280;10167;42.852;23.042;2024-01-15T07:35:11;94072.09;;;-1.29;100.00
20013;BME280;10167;42.852;23.042;2024-01-15T07:37:40;94089.13;;;-1.27;100.00
20013;BME280;10167;42.852;23.042;2024-01-15T07:40:10;94089.13;;;-1.27;100.00
20013;BME280;10167;42.852;23.042;2024-01-15T07:42:41;94072.38;;;-1.24;100.00
20013;BME280;10167;42.852;23.042;2024-01-15T07:45:11;94068.41;;;-1.20;100.00
20013;BME280;10167;42.852;23.042;2024-01-15T07:47:40;94061.28;;;-1.12;100.00
20013;BME280;10167;42.852;23.042;2024-01-15T07:50:10;94080.16;;;-1.03;100.00
20013;BME280;10167;42.852;23.042;2024-01-15T07:52:40;94100.69;;;-1.08;100.00
20013;BME280;10167;42.852;23.042;2024-01-15T07:55:09;94102.00;;;-0.97;100.00
20013;BME280;10167;42.852;23.042;2024-01-15T07:57:38;94099.25;;;-0.89;100.00
20013;BME280;10167;42.852;23.042;2024-01-15T08:00:10;94097.41;;;-0.74;100.00
20013;BME280;10167;42.852;23.042;2024-01-15T08:02:39;94087.78;;;-0.80;100.00
20013;BME280;10167;42.852;23.042;2024-01-15T08:05:08;94081.44;;;-0.71;100.00
20013;BME280;10167;42.852;23.042;2024-01-15T08:07:37;94086.75;;;-0.58;100.00
20013;BME280;10167;42.852;23.042;2024-01-15T08:10:06;94080.41;;;-0.49;100.00
20013;BME280;10167;42.852;23.042;2024-01-15T08:12:35;94086.75;;;-0.30;100.00
20013;BME280;10167;42.852;23.042;2024-01-15T08:15:05;94081.06;;;-0.12;100.00
20013;BME280;10167;42.852;23.042;2024-01-15T08:17:36;94084.13;;;-0.02;100.00
20013;BME280;10167;42.852;23.042;2024-01-15T08:20:06;94093.66;;;0.25;100.00
20013;BME280;10167;42.852;23.042;2024-01-15T08:22:35;94076.66;;;0.29;100.00
20013;BME280;10167;42.852;23.042;2024-01-15T08:25:04;94087.16;;;0.43;100.00
20013;BME280;10167;42.852;23.042;2024-01-15T08:27:33;94082.94;;;0.42;100.00
20013;BME280;10167;42.852;23.042;2024-01-15T08:30:03;94091.63;;;0.62;100.00
20013;BME280;10167;42.852;23.042;2024-01-15T08:32:32;94088.78;;;0.57;100.00
20013;BME280;10167;42.852;23.042;2024-01-15T08:35:05;94076.97;;;0.54;100.00
20013;BME280;10167;42.852;23.042;2024-01-15T08:37:34;94071.56;;;0.56;100.00
20013;BME280;10167;42.852;23.042;2024-01-15T08:40:04;94074.19;;;0.62;100.00
20013;BME280;10167;42.852;23.042;2024-01-15T08:42:33;94071.00;;;0.73;100.00
20013;BME280;10167;42.852;23.042;2024-01-15T08:45:02;94072.59;;;0.68;100.00
20013;BME280;10167;42.852;23.042;2024-01-15T08:47:31;94054.56;;;0.66;100.00
20013;BME280;10167;42.852;23.042;2024-01-15T08:50:01;94051.94;;;0.60;100.00
20013;BME280;10167;42.852;23.042;2024-01-15T08:52:32;94062.16;;;0.68;100.00
20013;BME280;10167;42.852;23.042;2024-01-15T08:55:01;94048.78;;;0.78;100.00
20013;BME280;10167;42.852;23.042;2024-01-15T08:57:30;94048.59;;;0.92;100.00
20013;BME280;10167;42.852;23.042;2024-01-15T08:59:59;94049.22;;;1.07;100.00
20013;BME280;10167;42.852;23.042;2024-01-15T09:02:30;94052.03;;;1.06;100.00
20013;BME280;10167;42.852;23.042;2024-01-15T09:04:59;94039.81;;;1.06;100.00
20013;BME280;10167;42.852;23.042;2024-01-15T09:07:29;94036.22;;;1.21;100.00
20013;BME280;10167;42.852;23.042;2024-01-15T09:10:00;94035.22;;;1.35;100.00
20013;BME280;10167;42.852;23.042;2024-01-15T09:12:30;94042.59;;;1.77;100.00
20013;BME280;10167;42.852;23.042;2024-01-15T09:15:00;94040.38;;;2.45;100.00
20013;BME280;10167;42.852;23.042;2024-01-15T09:17:32;94038.16;;;3.18;100.00
20013;BME280;10167;42.852;23.042;2024-01-15T09:20:01;94032.72;;;3.45;100.00
20013;BME280;10167;42.852;23.042;2024-01-15T09:22:32;94034.69;;;3.74;100.00
20013;BME280;10167;42.852;23.042;2024-01-15T09:25:03;94026.78;;;3.81;100.00
20013;BME280;10167;42.852;23.042;2024-01-15T09:27:33;94015.94;;;3.52;100.00
20013;BME280;10167;42.852;23.042;2024-01-15T09:30:02;94011.84;;;3.38;100.00
20013;BME280;10167;42.852;23.042;2024-01-15T09:32:33;94002.28;;;3.25;100.00
20013;BME280;10167;42.852;23.042;2024-01-15T09:35:03;93987.22;;;2.96;100.00
20013;BME280;10167;42.852;23.042;2024-01-15T09:37:32;93973.31;;;2.71;100.00
20013;BME280;10167;42.852;23.042;2024-01-15T09:40:15;93972.09;;;3.05;100.00
20013;BME280;10167;42.852;23.042;2024-01-15T09:42:46;93983.44;;;3.17;100.00
20013;BME280;10167;42.852;23.042;2024-01-15T09:45:16;93975.28;;;3.32;100.00
20013;BME280;10167;42.852;23.042;2024-01-15T09:47:45;93980.28;;;3.33;98.37
20013;BME280;10167;42.852;23.042;2024-01-15T09:50:15;93976.28;;;3.74;96.53
20013;BME280;10167;42.852;23.042;2024-01-15T09:52:45;93966.84;;;4.09;91.93
20013;BME280;10167;42.852;23.042;2024-01-15T09:55:17;93960.72;;;3.79;90.53
20013;BME280;10167;42.852;23.042;2024-01-15T09:57:46;93949.38;;;4.03;89.67
20013;BME280;10167;42.852;23.042;2024-01-15T10:00:18;93943.47;;;4.08;85.69
20013;BME280;10167;42.852;23.042;2024-01-15T10:02:47;93939.78;;;4.15;85.18
20013;BME280;10167;42.852;23.042;2024-01-15T10:05:17;93934.00;;;4.25;85.72
20013;BME280;10167;42.852;23.042;2024-01-15T10:07:47;93936.78;;;4.42;85.50
20013;BME280;10167;42.852;23.042;2024-01-15T10:10:20;93923.97;;;4.22;82.93
20013;BME280;10167;42.852;23.042;2024-01-15T10:12:50;93917.44;;;4.43;82.69
20013;BME280;10167;42.852;23.042;2024-01-15T10:15:22;93913.00;;;4.43;81.23
20013;BME280;10167;42.852;23.042;2024-01-15T10:17:54;93902.38;;;4.38;81.79
20013;BME280;10167;42.852;23.042;2024-01-15T10:20:24;93903.03;;;4.33;81.27
20013;BME280;10167;42.852;23.042;2024-01-15T10:22:53;93897.63;;;4.17;83.26
20013;BME280;10167;42.852;23.042;2024-01-15T10:25:24;93887.81;;;4.12;83.60
20013;BME280;10167;42.852;23.042;2024-01-15T10:28:00;93882.38;;;3.95;85.60
20013;BME280;10167;42.852;23.042;2024-01-15T10:30:30;93878.63;;;4.21;85.82
20013;BME280;10167;42.852;23.042;2024-01-15T10:33:02;93876.88;;;4.45;85.88
20013;BME280;10167;42.852;23.042;2024-01-15T10:35:34;93888.22;;;4.69;82.01
20013;BME280;10167;42.852;23.042;2024-01-15T10:38:15;93882.38;;;4.55;83.34
20013;BME280;10167;42.852;23.042;2024-01-15T10:40:47;93877.53;;;4.70;84.91
20013;BME280;10167;42.852;23.042;2024-01-15T10:43:16;93871.59;;;4.75;84.57
20013;BME280;10167;42.852;23.042;2024-01-15T10:45:46;93874.94;;;4.94;84.77
20013;BME280;10167;42.852;23.042;2024-01-15T10:48:17;93878.94;;;4.96;84.87
20013;BME280;10167;42.852;23.042;2024-01-15T10:50:47;93875.84;;;4.99;83.45
20013;BME280;10167;42.852;23.042;2024-01-15T10:53:17;93865.03;;;5.07;85.13
20013;BME280;10167;42.852;23.042;2024-01-15T10:55:48;93861.81;;;5.05;85.37
20013;BME280;10167;42.852;23.042;2024-01-15T10:58:18;93855.06;;;5.21;85.30
20013;BME280;10167;42.852;23.042;2024-01-15T11:00:50;93848.72;;;5.29;81.79
20013;BME280;10167;42.852;23.042;2024-01-15T11:03:19;93850.53;;;5.40;81.84
20013;BME280;10167;42.852;23.042;2024-01-15T11:05:49;93832.00;;;5.46;81.75
20013;BME280;10167;42.852;23.042;2024-01-15T11:08:18;93822.75;;;5.44;82.52
20013;BME280;10167;42.852;23.042;2024-01-15T11:10:52;93834.75;;;5.52;81.87
20013;BME280;10167;42.852;23.042;2024-01-15T11:16:10;93832.44;;;5.55;83.13
20013;BME280;10167;42.852;23.042;2024-01-15T11:18:41;93825.03;;;5.64;84.33
20013;BME280;10167;42.852;23.042;2024-01-15T11:21:24;93825.19;;;5.97;81.60
20013;BME280;10167;42.852;23.042;2024-01-15T11:23:56;93831.38;;;5.91;81.65
20013;BME280;10167;42.852;23.042;2024-01-15T11:26:36;93823.59;;;5.96;82.08
20013;BME280;10167;42.852;23.042;2024-01-15T11:29:06;93828.34;;;5.99;83.96
20013;BME280;10167;42.852;23.042;2024-01-15T11:32:06;93817.19;;;5.92;86.45
20013;BME280;10167;42.852;23.042;2024-01-15T11:34:56;93818.47;;;5.78;88.18
20013;BME280;10167;42.852;23.042;2024-01-15T11:37:58;93822.47;;;5.80;88.64
20013;BME280;10167;42.852;23.042;2024-01-15T11:40:38;93793.22;;;5.77;91.92
20013;BME280;10167;42.852;23.042;2024-01-15T11:43:12;93786.47;;;5.93;91.01
20013;BME280;10167;42.852;23.042;2024-01-15T11:45:44;93786.81;;;5.96;90.14
20013;BME280;10167;42.852;23.042;2024-01-15T11:48:14;93785.78;;;5.86;92.05
20013;BME280;10167;42.852;23.042;2024-01-15T11:50:46;93792.34;;;5.71;92.16
20013;BME280;10167;42.852;23.042;2024-01-15T11:53:27;93786.53;;;5.69;92.20
20013;BME280;10167;42.852;23.042;2024-01-15T11:56:03;93786.94;;;5.50;95.28
20013;BME280;10167;42.852;23.042;2024-01-15T11:58:37;93773.47;;;5.34;97.05
20013;BME280;10167;42.852;23.042;2024-01-15T12:01:06;93769.97;;;5.29;99.13
20013;BME280;10167;42.852;23.042;2024-01-15T12:03:36;93772.00;;;5.38;98.53
20013;BME280;10167;42.852;23.042;2024-01-15T12:06:06;93767.31;;;5.40;99.87
20013;BME280;10167;42.852;23.042;2024-01-15T12:08:35;93769.81;;;5.47;99.26
20013;BME280;10167;42.852;23.042;2024-01-15T12:11:07;93765.53;;;5.58;99.58
20013;BME280;10167;42.852;23.042;2024-01-15T12:13:41;93760.06;;;5.59;100.00
20013;BME280;10167;42.852;23.042;2024-01-15T12:16:10;93759.69;;;5.67;99.30
20013;BME280;10167;42.852;23.042;2024-01-15T12:18:41;93756.44;;;5.77;98.76
20013;BME280;10167;42.852;23.042;2024-01-15T12:21:11;93752.03;;;5.66;100.00
20013;BME280;10167;42.852;23.042;2024-01-15T12:23:41;93753.06;;;5.65;100.00
20013;BME280;10167;42.852;23.042;2024-01-15T12:26:10;93748.19;;;5.57;100.00
20013;BME280;10167;42.852;23.042;2024-01-15T12:28:42;93738.94;;;5.54;100.00
20013;BME280;10167;42.852;23.042;2024-01-15T12:31:11;93734.22;;;5.68;100.00
20013;BME280;10167;42.852;23.042;2024-01-15T12:33:40;93740.03;;;5.70;100.00
20013;BME280;10167;42.852;23.042;2024-01-15T12:36:12;93731.13;;;5.71;100.00
20013;BME280;10167;42.852;23.042;2024-01-15T12:38:42;93731.22;;;5.76;100.00
20013;BME280;10167;42.852;23.042;2024-01-15T12:41:13;93728.13;;;5.79;100.00
20013;BME280;10167;42.852;23.042;2024-01-15T12:43:44;93727.09;;;5.80;100.00
20013;BME280;10167;42.852;23.042;2024-01-15T12:46:14;93727.91;;;5.80;100.00
20013;BME280;10167;42.852;23.042;2024-01-15T12:48:43;93723.78;;;5.84;100.00
20013;BME280;10167;42.852;23.042;2024-01-15T12:51:15;93729.03;;;5.84;100.00
20013;BME280;10167;42.852;23.042;2024-01-15T12:53:44;93722.88;;;5.79;100.00
20013;BME280;10167;42.852;23.042;2024-01-15T12:56:13;93718.75;;;5.83;100.00
20013;BME280;10167;42.852;23.042;2024-01-15T12:58:44;93716.75;;;5.73;100.00
20013;BME280;10167;42.852;23.042;2024-01-15T13:01:14;93712.59;;;5.77;100.00
20013;BME280;10167;42.852;23.042;2024-01-15T13:03:44;93720.72;;;5.76;100.00